createdAt,value
2023-05-05T00:00:52.553Z,448.00
2023-05-05T00:01:52.602Z,420.00
2023-05-05T00:02:52.743Z,412.00
2023-05-05T00:03:52.781Z,414.00
2023-05-05T00:04:52.716Z,426.00
2023-05-05T00:05:52.772Z,443.00
2023-05-05T00:06:52.806Z,470.00
2023-05-05T00:07:52.853Z,500.00
2023-05-05T00:08:52.879Z,500.00
2023-05-05T00:09:52.918Z,500.00
2023-05-05T00:10:52.999Z,500.00
2023-05-05T00:11:52.991Z,500.00
2023-05-05T00:12:53.041Z,502.00
2023-05-05T00:13:53.031Z,500.00
2023-05-05T00:14:53.051Z,500.00
2023-05-05T00:15:53.108Z,500.00
2023-05-05T00:16:53.101Z,501.00
2023-05-05T00:17:53.291Z,500.00
2023-05-05T00:18:53.118Z,500.00
2023-05-05T00:19:53.135Z,501.00
2023-05-05T00:20:53.180Z,500.00
2023-05-05T00:21:53.176Z,502.00
2023-05-05T00:22:53.195Z,499.00
2023-05-05T00:23:53.204Z,504.00
2023-05-05T00:24:53.186Z,500.00
2023-05-05T00:25:53.196Z,501.00
2023-05-05T00:26:53.263Z,500.00
2023-05-05T00:27:53.278Z,502.00
2023-05-05T00:28:53.334Z,500.00
2023-05-05T00:29:53.328Z,501.00
2023-05-05T00:30:53.400Z,504.00
2023-05-05T00:31:53.384Z,502.00
2023-05-05T00:32:53.483Z,504.00
2023-05-05T00:33:53.405Z,501.00
2023-05-05T00:34:53.426Z,502.00
2023-05-05T00:35:53.434Z,504.00
2023-05-05T00:36:53.431Z,502.00
2023-05-05T00:37:53.422Z,500.00
2023-05-05T00:38:53.402Z,500.00
2023-05-05T00:39:53.421Z,503.00
2023-05-05T00:40:53.400Z,504.00
2023-05-05T00:41:53.396Z,502.00
2023-05-05T00:42:53.443Z,502.00
2023-05-05T00:43:53.395Z,501.00
2023-05-05T00:44:53.394Z,503.00
2023-05-05T00:45:53.397Z,502.00
2023-05-05T00:46:53.384Z,502.00
2023-05-05T00:47:53.394Z,501.00
2023-05-05T00:48:53.413Z,501.00
2023-05-05T00:49:53.361Z,501.00
2023-05-05T00:50:53.360Z,503.00
2023-05-05T00:51:53.356Z,501.00
2023-05-05T00:52:53.368Z,502.00
2023-05-05T00:53:53.380Z,508.00
2023-05-05T00:54:53.370Z,508.00
2023-05-05T00:55:53.373Z,504.00
2023-05-05T00:56:53.379Z,502.00
2023-05-05T00:57:53.383Z,504.00
2023-05-05T00:58:53.404Z,503.00
2023-05-05T00:59:53.365Z,500.00
2023-05-05T01:00:53.357Z,504.00
2023-05-05T01:01:53.389Z,503.00
2023-05-05T01:02:53.451Z,501.00
2023-05-05T01:03:53.493Z,500.00
2023-05-05T01:04:53.293Z,501.00
2023-05-05T01:05:53.297Z,503.00
2023-05-05T01:06:53.295Z,501.00
2023-05-05T01:07:53.302Z,501.00
2023-05-05T01:08:53.291Z,502.00
2023-05-05T01:10:04.240Z,500.00
2023-05-05T01:10:53.281Z,500.00
2023-05-05T01:11:53.231Z,501.00
2023-05-05T01:12:53.256Z,501.00
2023-05-05T01:13:53.219Z,502.00
2023-05-05T01:14:53.220Z,501.00
2023-05-05T01:15:53.256Z,502.00
2023-05-05T01:16:53.176Z,503.00
2023-05-05T01:17:53.214Z,504.00
2023-05-05T01:18:53.143Z,501.00
2023-05-05T01:19:53.134Z,502.00
2023-05-05T01:20:53.131Z,505.00
2023-05-05T01:21:53.098Z,501.00
2023-05-05T01:22:53.093Z,502.00
2023-05-05T01:23:53.084Z,500.00
2023-05-05T01:24:53.077Z,506.00
2023-05-05T01:25:53.028Z,503.00
2023-05-05T01:26:53.012Z,506.00
2023-05-05T01:27:52.993Z,504.00
2023-05-05T01:28:52.985Z,506.00
2023-05-05T01:29:52.968Z,506.00
2023-05-05T01:30:52.975Z,503.00
2023-05-05T01:31:52.992Z,500.00
2023-05-05T01:32:53.005Z,501.00
2023-05-05T01:33:52.899Z,501.00
2023-05-05T01:34:52.882Z,501.00
2023-05-05T01:35:52.866Z,504.00
2023-05-05T01:36:52.846Z,507.00
2023-05-05T01:37:52.822Z,503.00
2023-05-05T01:38:52.820Z,505.00
2023-05-05T01:39:52.792Z,500.00
2023-05-05T01:40:52.771Z,503.00
2023-05-05T01:41:52.762Z,505.00
2023-05-05T01:42:52.741Z,504.00
2023-05-05T01:43:52.726Z,503.00
2023-05-05T01:44:52.709Z,506.00
2023-05-05T01:45:52.698Z,500.00
2023-05-05T01:46:52.703Z,504.00
2023-05-05T01:47:52.677Z,505.00
2023-05-05T01:48:52.631Z,501.00
2023-05-05T01:49:52.647Z,501.00
2023-05-05T01:50:52.633Z,506.00
2023-05-05T01:51:52.591Z,501.00
2023-05-05T01:52:52.562Z,502.00
2023-05-05T01:53:52.554Z,504.00
2023-05-05T01:54:52.520Z,508.00
2023-05-05T01:55:52.505Z,500.00
2023-05-05T01:56:52.487Z,502.00
2023-05-05T01:57:52.496Z,506.00
2023-05-05T01:58:52.455Z,505.00
2023-05-05T01:59:52.431Z,505.00
2023-05-05T02:00:52.407Z,507.00
2023-05-05T02:01:52.391Z,502.00
2023-05-05T02:02:52.465Z,507.00
2023-05-05T02:03:52.347Z,502.00
2023-05-05T02:04:52.322Z,503.00
2023-05-05T02:05:52.339Z,503.00
2023-05-05T02:06:52.270Z,503.00
2023-05-05T02:07:52.254Z,505.00
2023-05-05T02:08:52.240Z,504.00
2023-05-05T02:09:52.215Z,505.00
2023-05-05T02:10:52.229Z,504.00
2023-05-05T02:11:52.181Z,501.00
2023-05-05T02:12:52.165Z,502.00
2023-05-05T02:13:52.151Z,500.00
2023-05-05T02:14:52.123Z,507.00
2023-05-05T02:15:52.149Z,500.00
2023-05-05T02:16:52.084Z,500.00
2023-05-05T02:17:52.116Z,506.00
2023-05-05T02:18:52.057Z,504.00
2023-05-05T02:19:52.016Z,502.00
2023-05-05T02:20:52.002Z,506.00
2023-05-05T02:21:51.982Z,500.00
2023-05-05T02:22:51.997Z,500.00
2023-05-05T02:23:52.144Z,501.00
2023-05-05T02:24:51.955Z,503.00
2023-05-05T02:25:51.928Z,502.00
2023-05-05T02:26:51.923Z,503.00
2023-05-05T02:27:51.907Z,502.00
2023-05-05T02:28:51.876Z,501.00
2023-05-05T02:29:51.830Z,500.00
2023-05-05T02:30:51.818Z,510.00
2023-05-05T02:31:51.839Z,505.00
2023-05-05T02:32:51.879Z,503.00
2023-05-05T02:33:51.736Z,501.00
2023-05-05T02:34:51.744Z,504.00
2023-05-05T02:35:51.709Z,503.00
2023-05-05T02:36:51.681Z,505.00
2023-05-05T02:37:51.655Z,503.00
2023-05-05T02:38:51.624Z,502.00
2023-05-05T02:39:51.618Z,510.00
2023-05-05T02:40:51.605Z,503.00
2023-05-05T02:41:51.552Z,505.00
2023-05-05T02:42:51.614Z,502.00
2023-05-05T02:43:51.529Z,505.00
2023-05-05T02:44:51.520Z,511.00
2023-05-05T02:45:51.543Z,503.00
2023-05-05T02:46:51.562Z,507.00
2023-05-05T02:47:51.568Z,503.00
2023-05-05T02:48:51.554Z,500.00
2023-05-05T02:49:51.549Z,506.00
2023-05-05T02:50:51.578Z,503.00
2023-05-05T02:51:51.555Z,506.00
2023-05-05T02:52:51.559Z,503.00
2023-05-05T02:53:51.557Z,506.00
2023-05-05T02:54:51.537Z,507.00
2023-05-05T02:55:51.582Z,501.00
2023-05-05T02:56:51.536Z,500.00
2023-05-05T02:57:51.539Z,502.00
2023-05-05T02:58:51.547Z,507.00
2023-05-05T02:59:51.554Z,503.00
2023-05-05T03:00:51.560Z,502.00
2023-05-05T03:01:51.647Z,502.00
2023-05-05T03:02:51.659Z,505.00
2023-05-05T03:03:51.686Z,500.00
2023-05-05T03:04:51.552Z,503.00
2023-05-05T03:05:51.589Z,503.00
2023-05-05T03:06:51.632Z,501.00
2023-05-05T03:07:51.573Z,503.00
2023-05-05T03:08:51.586Z,500.00
2023-05-05T03:09:51.588Z,504.00
2023-05-05T03:10:51.599Z,507.00
2023-05-05T03:11:51.608Z,505.00
2023-05-05T03:12:51.663Z,507.00
2023-05-05T03:13:51.578Z,506.00
2023-05-05T03:14:51.551Z,504.00
2023-05-05T03:15:51.555Z,504.00
2023-05-05T03:16:51.584Z,507.00
2023-05-05T03:17:51.575Z,502.00
2023-05-05T03:18:51.492Z,500.00
2023-05-05T03:19:51.486Z,501.00
2023-05-05T03:20:51.459Z,504.00
2023-05-05T03:21:51.478Z,501.00
2023-05-05T03:22:51.469Z,500.00
2023-05-05T03:23:51.411Z,500.00
2023-05-05T03:24:51.416Z,502.00
2023-05-05T03:25:51.388Z,502.00
2023-05-05T03:26:51.372Z,500.00
2023-05-05T03:27:51.356Z,503.00
2023-05-05T03:28:51.341Z,508.00
2023-05-05T03:29:51.331Z,500.00
2023-05-05T03:30:51.322Z,505.00
2023-05-05T03:31:51.314Z,503.00
2023-05-05T03:32:51.326Z,505.00
2023-05-05T03:33:51.258Z,505.00
2023-05-05T03:34:51.245Z,500.00
2023-05-05T03:35:51.289Z,506.00
2023-05-05T03:36:51.229Z,505.00
2023-05-05T03:37:51.234Z,505.00
2023-05-05T03:38:51.229Z,504.00
2023-05-05T03:39:51.211Z,502.00
2023-05-05T03:40:51.218Z,502.00
2023-05-05T03:41:51.175Z,503.00
2023-05-05T03:42:51.770Z,500.00
2023-05-05T03:43:51.164Z,506.00
2023-05-05T03:44:51.136Z,505.00
2023-05-05T03:45:51.186Z,501.00
2023-05-05T03:46:51.100Z,506.00
2023-05-05T03:47:51.127Z,505.00
2023-05-05T03:48:51.078Z,504.00
2023-05-05T03:49:51.067Z,501.00
2023-05-05T03:50:51.054Z,504.00
2023-05-05T03:51:51.037Z,504.00
2023-05-05T03:52:51.032Z,504.00
2023-05-05T03:53:51.015Z,506.00
2023-05-05T03:54:51.025Z,503.00
2023-05-05T03:55:51.034Z,503.00
2023-05-05T03:56:50.987Z,505.00
2023-05-05T03:57:50.998Z,505.00
2023-05-05T03:58:50.952Z,503.00
2023-05-05T03:59:50.972Z,506.00
2023-05-05T04:00:50.980Z,504.00
2023-05-05T04:01:50.976Z,507.00
2023-05-05T04:02:50.977Z,505.00
2023-05-05T04:03:50.928Z,507.00
2023-05-05T04:04:50.909Z,506.00
2023-05-05T04:05:50.917Z,506.00
2023-05-05T04:06:50.885Z,500.00
2023-05-05T04:07:50.882Z,503.00
2023-05-05T04:08:50.857Z,503.00
2023-05-05T04:09:50.864Z,504.00
2023-05-05T04:10:50.864Z,502.00
2023-05-05T04:11:50.822Z,504.00
2023-05-05T04:12:50.863Z,508.00
2023-05-05T04:13:50.805Z,503.00
2023-05-05T04:14:50.797Z,505.00
2023-05-05T04:15:50.795Z,502.00
2023-05-05T04:16:50.790Z,507.00
2023-05-05T04:17:50.799Z,505.00
2023-05-05T04:18:50.767Z,504.00
2023-05-05T04:19:50.736Z,503.00
2023-05-05T04:20:50.728Z,503.00
2023-05-05T04:21:50.734Z,502.00
2023-05-05T04:22:52.628Z,504.00
2023-05-05T04:23:50.688Z,508.00
2023-05-05T04:24:50.668Z,508.00
2023-05-05T04:25:50.664Z,509.00
2023-05-05T04:26:50.668Z,507.00
2023-05-05T04:27:50.650Z,503.00
2023-05-05T04:28:50.598Z,502.00
2023-05-05T04:29:50.587Z,509.00
2023-05-05T04:30:50.793Z,505.00
2023-05-05T04:31:50.604Z,503.00
2023-05-05T04:32:50.548Z,504.00
2023-05-05T04:33:50.515Z,505.00
2023-05-05T04:34:50.495Z,506.00
2023-05-05T04:35:50.489Z,504.00
2023-05-05T04:36:50.479Z,500.00
2023-05-05T04:37:50.436Z,500.00
2023-05-05T04:38:50.448Z,506.00
2023-05-05T04:39:50.433Z,503.00
2023-05-05T04:40:50.398Z,505.00
2023-05-05T04:41:50.381Z,506.00
2023-05-05T04:42:50.392Z,502.00
2023-05-05T04:43:50.345Z,506.00
2023-05-05T04:44:50.334Z,503.00
2023-05-05T04:45:50.309Z,500.00
2023-05-05T04:46:50.347Z,502.00
2023-05-05T04:47:50.362Z,504.00
2023-05-05T04:48:50.263Z,510.00
2023-05-05T04:49:50.248Z,506.00
2023-05-05T04:50:50.222Z,507.00
2023-05-05T04:51:50.223Z,507.00
2023-05-05T04:52:52.047Z,505.00
2023-05-05T04:53:50.200Z,506.00
2023-05-05T04:54:50.182Z,506.00
2023-05-05T04:55:50.168Z,504.00
2023-05-05T04:56:50.152Z,499.00
2023-05-05T04:57:50.135Z,506.00
2023-05-05T04:58:50.147Z,504.00
2023-05-05T04:59:50.097Z,500.00
2023-05-05T05:00:50.086Z,500.00
2023-05-05T05:01:50.138Z,498.00
2023-05-05T05:02:50.107Z,508.00
2023-05-05T05:03:50.065Z,503.00
2023-05-05T05:04:50.021Z,507.00
2023-05-05T05:05:50.003Z,505.00
2023-05-05T05:06:49.985Z,506.00
2023-05-05T05:07:49.973Z,500.00
2023-05-05T05:08:49.955Z,501.00
2023-05-05T05:09:49.931Z,512.00
2023-05-05T05:10:49.914Z,508.00
2023-05-05T05:11:49.897Z,506.00
2023-05-05T05:12:50.318Z,506.00
2023-05-05T05:13:49.857Z,508.00
2023-05-05T05:14:49.855Z,501.00
2023-05-05T05:15:49.810Z,501.00
2023-05-05T05:16:49.896Z,505.00
2023-05-05T05:17:49.854Z,502.00
2023-05-05T05:18:49.760Z,504.00
2023-05-05T05:19:49.744Z,505.00
2023-05-05T05:20:49.732Z,505.00
2023-05-05T05:21:49.710Z,503.00
2023-05-05T05:22:49.722Z,502.00
2023-05-05T05:23:49.672Z,506.00
2023-05-05T05:24:49.661Z,501.00
2023-05-05T05:25:49.640Z,504.00
2023-05-05T05:26:49.614Z,506.00
2023-05-05T05:27:58.537Z,513.00
2023-05-05T05:28:49.817Z,514.00
2023-05-05T05:29:49.590Z,516.00
2023-05-05T05:30:49.549Z,516.00
2023-05-05T05:31:49.523Z,511.00
2023-05-05T05:32:49.494Z,514.00
2023-05-05T05:33:49.474Z,510.00
2023-05-05T05:34:49.453Z,520.00
2023-05-05T05:35:49.436Z,514.00
2023-05-05T05:36:49.401Z,519.00
2023-05-05T05:37:49.388Z,525.00
2023-05-05T05:38:49.370Z,520.00
2023-05-05T05:39:49.355Z,523.00
2023-05-05T05:40:49.333Z,520.00
2023-05-05T05:41:49.311Z,521.00
2023-05-05T05:42:49.301Z,523.00
2023-05-05T05:43:49.271Z,524.00
2023-05-05T05:44:49.249Z,552.00
2023-05-05T05:45:49.268Z,556.00
2023-05-05T05:46:49.341Z,563.00
2023-05-05T05:47:49.251Z,544.00
2023-05-05T05:48:49.172Z,542.00
2023-05-05T05:49:49.119Z,564.00
2023-05-05T05:50:49.528Z,571.00
2023-05-05T05:51:49.330Z,580.00
2023-05-05T05:52:49.332Z,573.00
2023-05-05T05:53:58.759Z,582.00
2023-05-05T05:54:50.012Z,582.00
2023-05-05T05:56:04.614Z,582.00
2023-05-05T05:56:49.330Z,582.00
2023-05-05T05:57:48.917Z,585.00
2023-05-05T05:58:49.012Z,590.00
2023-05-05T05:59:52.070Z,591.00
2023-05-05T06:00:48.880Z,583.00
2023-05-05T06:01:48.828Z,586.00
2023-05-05T06:03:04.621Z,595.00
2023-05-05T06:03:52.086Z,584.00
2023-05-05T06:04:51.914Z,585.00
2023-05-05T06:05:48.698Z,585.00
2023-05-05T06:06:48.685Z,594.00
2023-05-05T06:08:04.303Z,610.00
2023-05-05T06:08:48.603Z,585.00
2023-05-05T06:09:55.964Z,597.00
2023-05-05T06:10:55.963Z,585.00
2023-05-05T06:11:48.856Z,586.00
2023-05-05T06:12:55.931Z,601.00
2023-05-05T06:13:51.665Z,586.00
2023-05-05T06:14:48.423Z,587.00
2023-05-05T06:15:49.469Z,604.00
2023-05-05T06:18:04.037Z,587.00
2023-05-05T06:18:48.321Z,588.00
2023-05-05T06:19:48.284Z,608.00
2023-05-05T06:20:51.484Z,641.00
2023-05-05T06:21:48.231Z,588.00
2023-05-05T06:22:51.374Z,609.00
2023-05-05T06:23:51.544Z,588.00
2023-05-05T06:24:48.106Z,589.00
2023-05-05T06:25:48.102Z,612.00
2023-05-05T06:26:48.072Z,652.00
2023-05-05T06:27:48.027Z,769.00
2023-05-05T06:28:49.350Z,953.00
2023-05-05T06:29:48.983Z,999.00
2023-05-05T06:30:47.930Z,1006.00
2023-05-05T06:31:48.172Z,1014.00
2023-05-05T06:32:47.980Z,1017.00
2023-05-05T06:33:48.022Z,1030.00
2023-05-05T06:34:48.022Z,1046.00
2023-05-05T06:35:48.132Z,1060.00
2023-05-05T06:36:48.051Z,1062.00
2023-05-05T06:37:48.022Z,1086.00
2023-05-05T06:38:48.339Z,1098.00
2023-05-05T06:39:48.048Z,1101.00
2023-05-05T06:40:48.027Z,1107.00
2023-05-05T06:41:48.031Z,1117.00
2023-05-05T06:42:48.070Z,1125.00
2023-05-05T06:43:49.347Z,1134.00
2023-05-05T06:44:48.082Z,1144.00
2023-05-05T06:45:48.097Z,1152.00
2023-05-05T06:47:48.114Z,1174.00
2023-05-05T06:48:48.385Z,1183.00
2023-05-05T06:49:48.013Z,1188.00
2023-05-05T06:50:48.051Z,1197.00
2023-05-05T06:51:47.911Z,1240.00
2023-05-05T06:52:47.900Z,1228.00
2023-05-05T12:18:12.178Z,500.00
2023-05-05T12:19:12.983Z,500.00
2023-05-05T12:20:13.302Z,500.00
2023-05-05T12:21:12.955Z,500.00
2023-05-05T12:22:12.936Z,500.00
2023-05-05T12:23:12.937Z,503.00
2023-05-05T12:24:12.897Z,498.00
2023-05-05T12:25:12.880Z,499.00
2023-05-05T12:26:12.855Z,545.00
2023-05-05T12:27:12.831Z,596.00
2023-05-05T12:28:12.820Z,579.00
2023-05-05T12:29:12.801Z,575.00
2023-05-05T12:30:12.771Z,586.00
2023-05-05T12:31:12.826Z,517.00
2023-05-05T12:32:12.763Z,527.00
2023-05-05T12:33:12.712Z,494.00
2023-05-05T12:34:12.726Z,500.00
2023-05-05T12:35:12.681Z,521.00
2023-05-05T12:36:12.733Z,557.00
2023-05-05T12:37:12.646Z,500.00
2023-05-05T12:38:12.590Z,512.00
2023-05-05T12:39:12.598Z,527.00
2023-05-05T12:40:12.557Z,511.00
2023-05-05T12:41:12.525Z,506.00
2023-05-05T12:42:12.502Z,509.00
2023-05-05T12:43:12.505Z,538.00
2023-05-05T12:44:12.450Z,566.00
2023-05-05T12:45:12.453Z,481.00
2023-05-05T12:46:12.482Z,500.00
2023-05-05T12:47:12.716Z,545.00
2023-05-05T12:48:12.394Z,585.00
2023-05-05T12:49:12.441Z,644.00
2023-05-05T12:50:12.460Z,578.00
2023-05-05T12:51:12.319Z,507.00
2023-05-05T12:52:12.295Z,508.00
2023-05-05T12:53:12.271Z,577.00
2023-05-05T12:54:12.257Z,602.00
2023-05-05T12:55:12.882Z,602.00
2023-05-05T12:56:12.208Z,623.00
2023-05-05T12:57:12.195Z,640.00
2023-05-05T12:58:12.166Z,642.00
2023-05-05T12:59:12.162Z,564.00
2023-05-05T13:00:12.130Z,545.00
2023-05-05T13:01:12.134Z,576.00
2023-05-05T13:02:12.157Z,575.00
2023-05-05T13:03:12.215Z,569.00
2023-05-05T13:04:12.162Z,589.00
2023-05-05T13:05:12.221Z,613.00
2023-05-05T13:06:12.201Z,599.00
2023-05-05T13:07:12.214Z,558.00
2023-05-05T13:08:12.057Z,585.00
2023-05-05T13:09:12.043Z,584.00
2023-05-05T13:10:12.238Z,576.00
2023-05-05T13:11:11.999Z,570.00
2023-05-05T13:12:12.089Z,586.00
2023-05-05T13:13:12.365Z,618.00
2023-05-05T13:14:11.937Z,565.00
2023-05-05T13:15:11.912Z,592.00
2023-05-05T13:16:11.943Z,563.00
2023-05-05T13:17:12.230Z,549.00
2023-05-05T13:18:11.910Z,538.00
2023-05-05T13:19:11.851Z,553.00
2023-05-05T13:20:11.845Z,569.00
2023-05-05T13:21:11.817Z,568.00
2023-05-05T13:22:11.908Z,766.00
2023-05-05T13:23:11.828Z,945.00
2023-05-05T13:24:21.353Z,658.00
2023-05-05T13:25:12.353Z,659.00
2023-05-05T13:26:11.735Z,661.00
2023-05-05T13:27:11.706Z,666.00
2023-05-05T13:28:11.683Z,743.00
2023-05-05T13:29:11.757Z,962.00
2023-05-05T13:30:11.647Z,1042.00
2023-05-05T13:31:11.631Z,1028.00
2023-05-05T13:32:11.593Z,1330.00
2023-05-05T13:33:11.564Z,1431.00
2023-05-05T13:34:11.512Z,1544.00
2023-05-05T13:35:13.195Z,1635.00
2023-05-05T13:36:11.467Z,1636.00
2023-05-05T13:37:11.485Z,1473.00
2023-05-05T13:38:11.532Z,1085.00
2023-05-05T13:39:11.364Z,951.00
2023-05-05T13:40:11.351Z,998.00
2023-05-05T13:41:11.327Z,860.00
2023-05-05T13:42:11.320Z,862.00
2023-05-05T13:43:11.295Z,831.00
2023-05-05T13:44:11.227Z,841.00
2023-05-05T13:45:11.243Z,707.00
2023-05-05T13:46:19.669Z,773.00
2023-05-05T13:47:11.197Z,773.00
2023-05-05T13:48:11.115Z,649.00
2023-05-05T13:49:11.256Z,577.00
2023-05-05T13:50:11.056Z,597.00
2023-05-05T13:51:11.047Z,595.00
2023-05-05T13:52:11.014Z,610.00
2023-05-05T13:53:10.976Z,765.00
2023-05-05T13:54:10.971Z,736.00
2023-05-05T13:55:10.973Z,635.00
2023-05-05T13:56:11.253Z,616.00
2023-05-05T13:57:10.862Z,614.00
2023-05-05T13:58:10.836Z,572.00
2023-05-05T13:59:10.802Z,578.00
2023-05-05T14:00:10.767Z,583.00
2023-05-05T14:01:10.820Z,551.00
2023-05-05T14:02:10.708Z,564.00
2023-05-05T14:03:10.687Z,613.00
2023-05-05T14:04:10.687Z,604.00
2023-05-05T14:05:10.857Z,573.00
2023-05-05T14:06:10.603Z,559.00
2023-05-05T14:07:10.572Z,561.00
2023-05-05T14:08:10.536Z,614.00
2023-05-05T14:09:10.746Z,543.00
2023-05-05T14:10:10.600Z,504.00
2023-05-05T14:11:10.754Z,483.00
2023-05-05T14:12:10.435Z,533.00
2023-05-05T14:13:10.443Z,594.00
2023-05-05T14:14:10.394Z,550.00
2023-05-05T14:15:10.667Z,536.00
2023-05-05T14:16:10.372Z,536.00
2023-05-05T14:17:10.323Z,571.00
2023-05-05T14:18:10.287Z,595.00
2023-05-05T14:19:10.252Z,566.00
2023-05-05T14:20:10.223Z,944.00
2023-05-05T14:21:10.201Z,996.00
2023-05-05T14:22:10.175Z,1138.00
2023-05-05T14:23:10.140Z,1381.00
2023-05-05T14:24:10.120Z,1636.00
2023-05-05T14:25:10.247Z,1776.00
2023-05-05T14:26:10.156Z,1576.00
2023-05-05T14:27:10.033Z,1266.00
2023-05-05T14:28:10.036Z,1226.00
2023-05-05T14:29:10.057Z,1288.00
2023-05-05T14:30:10.064Z,937.00
2023-05-05T14:31:10.077Z,854.00
2023-05-05T14:32:10.123Z,830.00
2023-05-05T14:33:10.097Z,792.00
2023-05-05T14:34:10.255Z,682.00
2023-05-05T14:35:10.248Z,662.00
2023-05-05T14:36:10.121Z,649.00
2023-05-05T14:37:10.144Z,624.00
2023-05-05T14:38:10.171Z,578.00
2023-05-05T14:39:10.256Z,555.00
2023-05-05T14:40:10.145Z,489.00
2023-05-05T14:41:10.151Z,551.00
2023-05-05T14:42:10.240Z,578.00
2023-05-05T14:43:10.129Z,594.00
2023-05-05T14:44:10.104Z,655.00
2023-05-05T14:45:10.279Z,635.00
2023-05-05T14:46:10.374Z,574.00
2023-05-05T14:47:10.090Z,539.00
2023-05-05T14:48:10.074Z,541.00
2023-05-05T14:49:10.081Z,571.00
2023-05-05T14:50:10.064Z,580.00
2023-05-05T14:51:10.045Z,640.00
2023-05-05T14:52:10.020Z,519.00
2023-05-05T14:53:10.016Z,524.00
2023-05-05T14:54:24.122Z,502.00
2023-05-05T14:55:10.169Z,502.00
2023-05-05T14:56:09.937Z,464.00
2023-05-05T14:57:09.920Z,462.00
2023-05-05T14:58:09.897Z,470.00
2023-05-05T14:59:09.855Z,467.00
2023-05-05T15:00:09.819Z,497.00
2023-05-05T15:01:09.819Z,537.00
2023-05-05T15:02:09.771Z,527.00
2023-05-05T15:03:09.780Z,551.00
2023-05-05T15:04:09.697Z,598.00
2023-05-05T15:05:09.789Z,585.00
2023-05-05T15:06:09.630Z,617.00
2023-05-05T15:07:09.589Z,612.00
2023-05-05T15:08:09.556Z,588.00
2023-05-05T15:09:09.527Z,590.00
2023-05-05T15:10:09.496Z,550.00
2023-05-05T15:11:09.471Z,536.00
2023-05-05T15:12:09.441Z,575.00
2023-05-05T15:13:09.480Z,596.00
2023-05-05T15:14:09.405Z,637.00
2023-05-05T15:15:09.601Z,666.00
2023-05-05T15:16:09.351Z,677.00
2023-05-05T15:17:09.326Z,761.00
2023-05-05T15:18:09.242Z,660.00
2023-05-05T15:19:09.216Z,624.00
2023-05-05T15:20:09.177Z,635.00
2023-05-05T15:21:09.155Z,633.00
2023-05-05T15:22:09.113Z,654.00
2023-05-05T15:23:09.084Z,674.00
2023-05-05T15:24:09.039Z,633.00
2023-05-05T15:25:09.335Z,638.00
2023-05-05T15:26:08.980Z,652.00
2023-05-05T15:27:08.956Z,630.00
2023-05-05T15:28:08.938Z,627.00
2023-05-05T15:29:08.878Z,649.00
2023-05-05T15:30:08.994Z,647.00
2023-05-05T15:31:08.816Z,626.00
2023-05-05T15:32:08.873Z,631.00
2023-05-05T15:33:08.747Z,605.00
2023-05-05T15:34:08.710Z,638.00
2023-05-05T15:35:08.890Z,644.00
2023-05-05T15:36:08.651Z,612.00
2023-05-05T15:37:08.617Z,651.00
2023-05-05T15:38:08.590Z,623.00
2023-05-05T15:39:08.556Z,598.00
2023-05-05T15:40:08.530Z,652.00
2023-05-05T15:41:08.531Z,871.00
2023-05-05T15:42:08.522Z,995.00
2023-05-05T15:43:08.516Z,899.00
2023-05-05T15:44:08.506Z,949.00
2023-05-05T15:45:08.640Z,1023.00
2023-05-05T15:46:08.562Z,995.00
2023-05-05T15:47:08.606Z,952.00
2023-05-05T15:48:08.522Z,933.00
2023-05-05T15:49:08.446Z,748.00
2023-05-05T15:50:08.455Z,951.00
2023-05-05T15:51:08.458Z,1396.00
2023-05-05T15:52:08.463Z,1645.00
2023-05-05T15:53:08.497Z,1794.00
2023-05-05T15:54:08.481Z,1891.00
2023-05-05T15:55:08.706Z,1972.00
2023-05-05T15:56:08.546Z,2008.00
2023-05-05T15:57:08.515Z,2034.00
2023-05-05T15:58:08.526Z,2099.00
2023-05-05T15:59:08.549Z,1986.00
2023-05-05T16:00:08.579Z,1928.00
2023-05-05T16:01:08.660Z,2075.00
2023-05-05T16:02:08.776Z,2120.00
2023-05-05T16:03:08.825Z,2118.00
2023-05-05T16:04:08.728Z,2170.00
2023-05-05T16:05:08.962Z,2151.00
2023-05-05T16:06:08.792Z,2155.00
2023-05-05T16:07:08.837Z,2129.00
2023-05-05T16:08:08.892Z,2094.00
2023-05-05T16:09:08.938Z,2106.00
2023-05-05T16:10:08.978Z,2121.00
2023-05-05T16:11:09.015Z,2107.00
2023-05-05T16:12:09.059Z,2089.00
2023-05-05T16:13:09.174Z,2055.00
2023-05-05T16:14:09.147Z,1996.00
2023-05-05T16:15:09.391Z,2075.00
2023-05-05T16:16:09.236Z,2126.00
2023-05-05T16:17:09.328Z,2146.00
2023-05-05T16:18:09.407Z,2074.00
2023-05-05T16:19:09.365Z,2075.00
2023-05-05T16:20:09.425Z,1751.00
2023-05-05T16:21:09.436Z,1562.00
2023-05-05T16:22:09.466Z,1412.00
2023-05-05T16:23:09.495Z,1366.00
2023-05-05T16:24:09.488Z,1320.00
2023-05-05T16:25:09.696Z,1167.00
2023-05-05T16:26:09.445Z,1050.00
2023-05-05T16:27:09.446Z,993.00
2023-05-05T16:28:09.419Z,1147.00
2023-05-05T16:29:09.425Z,1059.00
2023-05-05T16:30:09.475Z,1002.00
2023-05-05T16:31:09.552Z,923.00
2023-05-05T16:32:09.461Z,909.00
2023-05-05T16:33:09.554Z,929.00
2023-05-05T16:34:09.553Z,908.00
2023-05-05T16:35:09.584Z,882.00
2023-05-05T16:36:09.418Z,844.00
2023-05-05T16:37:09.421Z,799.00
2023-05-05T16:38:09.424Z,784.00
2023-05-05T16:39:09.427Z,973.00
2023-05-05T16:40:09.428Z,1237.00
2023-05-05T16:41:09.479Z,1409.00
2023-05-05T16:42:09.491Z,1424.00
2023-05-05T16:43:09.529Z,1545.00
2023-05-05T16:44:09.571Z,1587.00
2023-05-05T16:45:09.852Z,1643.00
2023-05-05T16:46:09.683Z,1667.00
2023-05-05T16:47:09.659Z,1727.00
2023-05-05T16:48:09.732Z,1787.00
2023-05-05T16:49:09.690Z,1846.00
2023-05-05T16:50:09.814Z,1882.00
2023-05-05T16:51:09.710Z,1924.00
2023-05-05T16:52:09.748Z,1972.00
2023-05-05T16:53:09.771Z,1999.00
2023-05-05T16:54:09.757Z,2025.00
2023-05-05T16:55:09.921Z,2069.00
2023-05-05T16:56:09.790Z,2088.00
2023-05-05T16:57:09.791Z,2106.00
2023-05-05T16:58:09.783Z,2141.00
2023-05-05T16:59:09.790Z,2159.00
2023-05-05T17:00:09.785Z,2187.00
2023-05-05T17:01:09.853Z,2240.00
2023-05-05T17:02:09.866Z,2245.00
2023-05-05T17:03:09.781Z,2276.00
2023-05-05T17:04:09.783Z,2307.00
2023-05-05T17:05:10.020Z,2344.00
2023-05-05T17:06:09.870Z,2389.00
2023-05-05T17:07:09.760Z,2414.00
2023-05-05T17:08:09.753Z,2430.00
2023-05-05T17:09:09.744Z,2472.00
2023-05-05T17:10:09.724Z,2504.00
2023-05-05T17:11:11.684Z,2512.00
2023-05-05T17:12:09.680Z,2552.00
2023-05-05T17:13:09.697Z,2539.00
2023-05-05T17:14:09.613Z,2597.00
2023-05-05T17:15:09.781Z,2587.00
2023-05-05T17:16:09.589Z,2606.00
2023-05-05T17:17:09.529Z,2641.00
2023-05-05T17:18:09.582Z,2636.00
2023-05-05T17:19:09.455Z,2641.00
2023-05-05T17:20:09.416Z,2643.00
2023-05-05T17:21:09.386Z,2669.00
2023-05-05T17:22:09.489Z,2676.00
2023-05-05T17:23:09.340Z,2678.00
2023-05-05T17:24:09.303Z,2659.00
2023-05-05T17:25:09.621Z,2656.00
2023-05-05T17:26:09.253Z,2696.00
2023-05-05T17:27:09.236Z,2695.00
2023-05-05T17:28:09.205Z,2684.00
2023-05-05T17:29:10.423Z,2544.00
2023-05-05T17:30:09.143Z,2546.00
2023-05-05T17:31:09.139Z,2563.00
2023-05-05T17:32:09.252Z,2564.00
2023-05-05T17:33:09.181Z,2566.00
2023-05-05T17:34:09.017Z,2596.00
2023-05-05T17:35:09.218Z,2609.00
2023-05-05T17:36:08.973Z,2612.00
2023-05-05T17:37:08.927Z,2566.00
2023-05-05T17:38:09.038Z,2507.00
2023-05-05T17:39:08.889Z,2456.00
2023-05-05T17:40:08.870Z,2508.00
2023-05-05T17:41:09.453Z,2566.00
2023-05-05T17:42:09.930Z,2561.00
2023-05-05T17:43:09.533Z,2581.00
2023-05-05T17:44:08.993Z,2579.00
2023-05-05T17:45:09.013Z,2588.00
2023-05-05T17:46:09.259Z,2588.00
2023-05-05T17:47:09.056Z,2586.00
2023-05-05T17:48:08.982Z,2593.00
2023-05-05T17:49:08.626Z,2594.00
2023-05-05T17:50:08.599Z,2595.00